createdAt,value
2022-09-12T00:01:23.669Z,14.28
2022-09-12T00:03:53.795Z,14.29
2022-09-12T00:06:23.748Z,14.35
2022-09-12T00:08:51.857Z,14.35
2022-09-12T00:11:21.359Z,14.32
2022-09-12T00:13:49.530Z,14.27
2022-09-12T00:16:18.845Z,14.30
2022-09-12T00:18:47.711Z,14.22
2022-09-12T00:21:16.769Z,14.10
2022-09-12T00:23:45.295Z,14.10
2022-09-12T00:26:13.823Z,14.08
2022-09-12T00:28:43.452Z,14.04
2022-09-12T00:31:14.229Z,14.13
2022-09-12T00:33:42.308Z,13.98
2022-09-12T00:36:17.222Z,13.97
2022-09-12T00:38:45.625Z,14.07
2022-09-12T00:41:17.874Z,13.96
2022-09-12T00:43:48.894Z,13.85
2022-09-12T00:46:29.169Z,13.98
2022-09-12T00:49:00.754Z,13.98
2022-09-12T00:51:31.708Z,13.86
2022-09-12T00:54:01.995Z,13.85
2022-09-12T00:56:30.522Z,13.77
2022-09-12T00:59:06.461Z,13.71
2022-09-12T01:01:35.094Z,13.77
2022-09-12T01:04:03.712Z,13.69
2022-09-12T01:06:36.574Z,13.61
2022-09-12T01:09:05.038Z,13.67
2022-09-12T01:11:35.588Z,13.65
2022-09-12T01:14:04.996Z,13.69
2022-09-12T01:16:33.199Z,13.61
2022-09-12T01:19:18.984Z,13.54
2022-09-12T01:21:57.863Z,13.56
2022-09-12T01:25:00.278Z,13.58
2022-09-12T01:27:43.199Z,13.55
2022-09-12T01:30:24.984Z,13.51
2022-09-12T01:33:15.364Z,13.55
2022-09-12T01:35:51.642Z,13.49
2022-09-12T01:38:29.100Z,13.47
2022-09-12T01:41:04.338Z,13.42
2022-09-12T01:43:37.836Z,13.37
2022-09-12T01:46:14.662Z,13.44
2022-09-12T01:48:48.004Z,13.40
2022-09-12T01:51:22.801Z,13.31
2022-09-12T01:53:55.670Z,13.34
2022-09-12T01:56:26.569Z,13.25
2022-09-12T01:58:59.528Z,13.30
2022-09-12T02:01:31.848Z,13.19
2022-09-12T02:04:09.124Z,13.14
2022-09-12T02:06:45.464Z,13.13
2022-09-12T02:09:19.635Z,13.15
2022-09-12T02:11:49.602Z,13.19
2022-09-12T02:14:22.787Z,13.14
2022-09-12T02:16:56.991Z,13.22
2022-09-12T02:19:28.423Z,13.21
2022-09-12T02:22:01.240Z,13.09
2022-09-12T02:24:31.922Z,13.06
2022-09-12T02:27:05.741Z,13.06
2022-09-12T02:29:33.937Z,13.03
2022-09-12T02:32:08.545Z,12.94
2022-09-12T02:34:49.407Z,12.91
2022-09-12T02:37:26.278Z,12.97
2022-09-12T02:39:55.305Z,13.04
2022-09-12T02:42:26.370Z,12.99
2022-09-12T02:44:56.836Z,12.98
2022-09-12T02:47:31.190Z,12.97
2022-09-12T02:50:00.772Z,12.91
2022-09-12T02:52:29.894Z,12.82
2022-09-12T02:55:01.255Z,12.80
2022-09-12T02:57:29.249Z,12.81
2022-09-12T03:00:00.194Z,12.72
2022-09-12T03:02:40.367Z,12.74
2022-09-12T03:05:21.696Z,12.78
2022-09-12T03:08:12.625Z,12.76
2022-09-12T03:10:50.941Z,12.81
2022-09-12T03:13:26.710Z,12.83
2022-09-12T03:16:08.578Z,12.75
2022-09-12T03:18:51.727Z,12.72
2022-09-12T03:21:24.144Z,12.71
2022-09-12T03:24:06.302Z,12.67
2022-09-12T03:26:41.983Z,12.62
2022-09-12T03:29:12.752Z,12.65
2022-09-12T03:31:50.236Z,12.60
2022-09-12T03:34:20.185Z,12.63
2022-09-12T03:36:49.046Z,12.62
2022-09-12T03:39:20.394Z,12.63
2022-09-12T03:41:48.459Z,12.63
2022-09-12T03:44:16.391Z,12.61
2022-09-12T03:46:44.551Z,12.53
2022-09-12T03:49:13.041Z,12.57
2022-09-12T03:51:45.500Z,12.59
2022-09-12T03:54:13.581Z,12.60
2022-09-12T03:56:41.588Z,12.63
2022-09-12T03:59:09.649Z,12.59
2022-09-12T04:01:38.354Z,12.54
2022-09-12T04:04:06.409Z,12.54
2022-09-12T04:06:34.355Z,12.54
2022-09-12T04:09:06.581Z,12.53
2022-09-12T04:11:35.897Z,12.51
2022-09-12T04:14:03.850Z,12.52
2022-09-12T04:16:32.298Z,12.53
2022-09-12T04:19:00.577Z,12.53
2022-09-12T04:21:28.565Z,12.52
2022-09-12T04:23:56.570Z,12.52
2022-09-12T04:26:29.802Z,12.47
2022-09-12T04:28:57.776Z,12.48
2022-09-12T04:31:28.248Z,12.44
2022-09-12T04:33:57.221Z,12.44
2022-09-12T04:36:26.108Z,12.45
2022-09-12T04:38:54.783Z,12.45
2022-09-12T04:41:24.635Z,12.46
2022-09-12T04:43:58.271Z,12.54
2022-09-12T04:46:27.209Z,12.49
2022-09-12T04:48:56.987Z,12.45
2022-09-12T04:51:27.908Z,12.51
2022-09-12T04:53:57.934Z,12.46
2022-09-12T04:56:26.416Z,12.49
2022-09-12T04:58:58.509Z,12.52
2022-09-12T05:01:30.086Z,12.55
2022-09-12T05:03:59.963Z,12.59
2022-09-12T05:06:30.310Z,12.68
2022-09-12T05:08:59.732Z,12.66
2022-09-12T05:11:59.785Z,12.70
2022-09-12T05:14:20.106Z,12.64
2022-09-12T05:16:49.554Z,12.59
2022-09-12T05:19:18.408Z,12.64
2022-09-12T05:21:46.357Z,12.70
2022-09-12T05:24:17.304Z,12.73
2022-09-12T05:26:45.293Z,12.78
2022-09-12T05:29:13.332Z,12.76
2022-09-12T05:31:42.703Z,12.80
2022-09-12T05:34:11.259Z,12.83
2022-09-12T05:36:39.640Z,12.87
2022-09-12T05:39:07.844Z,12.92
2022-09-12T05:41:36.491Z,12.89
2022-09-12T05:44:06.716Z,12.93
2022-09-12T05:46:38.962Z,13.07
2022-09-12T05:49:10.386Z,13.01
2022-09-12T05:51:43.153Z,13.04
2022-09-12T05:54:14.374Z,13.04
2022-09-12T05:56:44.632Z,13.07
2022-09-12T05:59:14.536Z,13.12
2022-09-12T06:01:43.319Z,13.12
2022-09-12T06:04:13.214Z,13.14
2022-09-12T06:06:44.985Z,13.22
2022-09-12T06:09:14.588Z,13.26
2022-09-12T06:11:42.881Z,13.31
2022-09-12T06:14:12.822Z,13.32
2022-09-12T06:16:41.620Z,13.36
2022-09-12T06:19:17.835Z,13.38
2022-09-12T06:21:46.491Z,13.44
2022-09-12T06:24:14.532Z,13.44
2022-09-12T06:26:43.799Z,13.51
2022-09-12T06:29:13.432Z,13.49
2022-09-12T06:31:43.469Z,13.57
2022-09-12T06:34:14.158Z,13.59
2022-09-12T06:36:45.651Z,13.65
2022-09-12T06:39:15.164Z,13.69
2022-09-12T06:41:44.341Z,13.73
2022-09-12T06:44:14.966Z,13.77
2022-09-12T06:46:46.247Z,13.81
2022-09-12T06:49:14.849Z,13.89
2022-09-12T06:51:44.590Z,13.86
2022-09-12T06:54:14.514Z,13.87
2022-09-12T06:56:42.863Z,13.93
2022-09-12T06:59:11.518Z,13.93
2022-09-12T07:01:40.104Z,13.96
2022-09-12T07:04:08.519Z,14.00
2022-09-12T07:06:39.129Z,14.08
2022-09-12T07:09:12.780Z,14.12
2022-09-12T07:11:42.843Z,14.24
2022-09-12T07:14:13.893Z,14.35
2022-09-12T07:16:42.685Z,14.53
2022-09-12T07:19:11.362Z,14.61
2022-09-12T07:21:42.549Z,14.75
2022-09-12T07:24:11.995Z,14.96
2022-09-12T07:26:42.197Z,15.06
2022-09-12T07:29:35.918Z,15.16
2022-09-12T07:32:05.682Z,15.18
2022-09-12T07:34:33.796Z,15.29
2022-09-12T07:37:01.705Z,15.35
2022-09-12T07:39:30.995Z,15.34
2022-09-12T07:42:01.580Z,15.42
2022-09-12T07:44:29.629Z,15.69
2022-09-12T07:46:57.544Z,15.89
2022-09-12T07:49:25.688Z,16.04
2022-09-12T07:51:53.931Z,16.21
2022-09-12T07:54:25.194Z,16.39
2022-09-12T07:56:54.522Z,16.62
2022-09-12T07:59:48.454Z,16.80
2022-09-12T08:02:17.099Z,16.84
2022-09-12T08:04:45.377Z,16.98
2022-09-12T08:07:16.332Z,17.01
2022-09-12T08:09:44.290Z,17.03
2022-09-12T08:12:13.731Z,17.08
2022-09-12T08:14:41.749Z,17.08
2022-09-12T08:17:09.730Z,17.25
2022-09-12T08:19:38.439Z,17.44
2022-09-12T08:22:06.454Z,17.73
2022-09-12T08:24:34.540Z,17.90
2022-09-12T08:27:02.493Z,18.07
2022-09-12T08:29:41.531Z,18.18
2022-09-12T08:32:09.734Z,18.39
2022-09-12T08:34:37.635Z,18.53
2022-09-12T08:37:05.702Z,18.71
2022-09-12T08:39:33.830Z,18.78
2022-09-12T08:42:04.162Z,18.93
2022-09-12T08:44:58.195Z,19.04
2022-09-12T08:47:29.877Z,19.26
2022-09-12T08:50:05.487Z,19.41
2022-09-12T08:52:39.554Z,19.61
2022-09-12T08:55:14.117Z,19.83
2022-09-12T08:57:42.094Z,20.03
2022-09-12T09:00:23.171Z,20.17
2022-09-12T09:03:07.804Z,20.40
2022-09-12T09:05:47.262Z,20.65
2022-09-12T09:08:34.521Z,20.72
2022-09-12T09:11:14.599Z,20.90
2022-09-12T09:14:10.847Z,21.19
2022-09-12T09:16:45.564Z,21.33
2022-09-12T09:19:17.867Z,21.52
2022-09-12T09:21:51.864Z,21.63
2022-09-12T09:24:26.047Z,21.77
2022-09-12T09:26:59.430Z,22.05
2022-09-12T09:29:31.532Z,22.15
2022-09-12T09:32:05.302Z,22.30
2022-09-12T09:34:33.321Z,22.55
2022-09-12T09:37:10.316Z,22.72
2022-09-12T09:39:51.241Z,22.74
2022-09-12T09:42:28.906Z,22.89
2022-09-12T09:45:01.166Z,23.15
2022-09-12T09:47:30.979Z,23.46
2022-09-12T09:49:59.025Z,23.68
2022-09-12T09:52:30.706Z,23.88
2022-09-12T09:55:01.005Z,23.77
2022-09-12T09:57:46.698Z,24.01
2022-09-12T10:00:31.677Z,24.24
2022-09-12T10:03:11.353Z,24.39
2022-09-12T10:05:48.115Z,24.57
2022-09-12T10:08:23.013Z,24.92
2022-09-12T10:10:55.838Z,25.24
2022-09-12T10:13:28.950Z,25.29
2022-09-12T10:15:59.318Z,25.44
2022-09-12T10:18:43.293Z,25.65
2022-09-12T10:21:19.059Z,25.93
2022-09-12T10:23:48.829Z,26.01
2022-09-12T10:26:20.709Z,26.05
2022-09-12T10:28:52.429Z,26.28
2022-09-12T10:31:29.164Z,26.59
2022-09-12T10:34:00.977Z,26.70
2022-09-12T10:36:38.468Z,26.75
2022-09-12T10:39:07.360Z,26.97
2022-09-12T10:41:40.515Z,27.20
2022-09-12T10:44:17.693Z,26.82
2022-09-12T10:46:46.034Z,27.10
2022-09-12T10:49:22.942Z,27.21
2022-09-12T10:51:52.485Z,27.06
2022-09-12T10:54:22.901Z,27.62
2022-09-12T10:57:06.688Z,27.98
2022-09-12T10:59:52.841Z,28.26
2022-09-12T11:02:28.504Z,28.48
2022-09-12T11:05:08.018Z,28.60
2022-09-12T11:07:43.055Z,28.61
2022-09-12T11:10:34.301Z,28.79
2022-09-12T11:13:19.428Z,28.43
2022-09-12T11:16:10.632Z,28.76
2022-09-12T11:19:05.966Z,28.90
2022-09-12T11:21:52.446Z,29.13
2022-09-12T11:24:35.981Z,29.53
2022-09-12T11:27:20.580Z,29.48
2022-09-12T11:29:50.644Z,28.97
2022-09-12T11:33:05.714Z,29.01
2022-09-12T11:35:35.628Z,29.43
2022-09-12T11:38:21.703Z,29.78
2022-09-12T11:40:54.484Z,29.79
2022-09-12T11:43:33.040Z,29.63
2022-09-12T11:46:08.160Z,30.08
2022-09-12T11:48:44.070Z,29.56
2022-09-12T11:51:20.600Z,29.73
2022-09-12T11:54:00.840Z,29.98
2022-09-12T11:56:28.845Z,29.96
2022-09-12T11:59:04.123Z,30.11
2022-09-12T12:01:43.876Z,30.03
2022-09-12T12:04:16.539Z,30.59
2022-09-12T12:06:53.948Z,30.15
2022-09-12T12:09:23.614Z,30.27
2022-09-12T12:11:57.853Z,29.68
2022-09-12T12:14:32.073Z,30.06
2022-09-12T12:17:00.347Z,30.20
2022-09-12T12:19:35.165Z,30.26
2022-09-12T12:22:20.600Z,30.56
2022-09-12T12:25:05.836Z,30.63
2022-09-12T12:27:51.969Z,30.56
2022-09-12T12:31:04.089Z,30.84
2022-09-12T12:34:04.605Z,30.92
2022-09-12T12:36:43.340Z,30.53
2022-09-12T12:39:44.841Z,30.42
2022-09-12T12:42:57.951Z,30.77
2022-09-12T12:46:08.564Z,30.95
2022-09-12T12:48:55.908Z,30.83
2022-09-12T12:51:57.070Z,31.39
2022-09-12T12:54:31.386Z,31.17
2022-09-12T12:57:06.039Z,31.21
2022-09-12T12:59:35.684Z,31.64
2022-09-12T13:02:05.978Z,31.17
2022-09-12T13:04:34.876Z,31.41
2022-09-12T13:07:08.442Z,31.35
2022-09-12T13:09:44.390Z,31.69
2022-09-12T13:12:21.347Z,32.25
2022-09-12T13:14:55.216Z,32.04
2022-09-12T13:17:31.624Z,31.64
2022-09-12T13:20:29.248Z,31.46
2022-09-12T13:22:59.014Z,31.43
2022-09-12T13:25:30.763Z,31.78
2022-09-12T13:28:00.970Z,31.87
2022-09-12T13:30:35.336Z,31.76
2022-09-12T13:33:12.502Z,31.94
2022-09-12T13:35:51.393Z,32.22
2022-09-12T13:38:31.480Z,31.72
2022-09-12T13:41:21.666Z,31.02
2022-09-12T13:43:50.704Z,31.15
2022-09-12T13:46:30.609Z,31.00
2022-09-12T13:49:00.293Z,30.69
2022-09-12T13:51:32.142Z,30.88
2022-09-12T13:54:04.361Z,30.81
2022-09-12T13:56:32.871Z,30.78
2022-09-12T13:59:02.603Z,30.54
2022-09-12T14:01:41.222Z,30.63
2022-09-12T14:04:34.574Z,30.37
2022-09-12T14:07:04.949Z,30.69
2022-09-12T14:09:38.592Z,30.89
2022-09-12T14:12:18.034Z,30.41
2022-09-12T14:14:49.987Z,29.95
2022-09-12T14:17:23.900Z,30.07
2022-09-12T14:19:52.694Z,29.88
2022-09-12T14:22:20.790Z,29.84
2022-09-12T14:24:51.774Z,30.01
2022-09-12T14:27:23.968Z,29.38
2022-09-12T14:29:56.065Z,29.40
2022-09-12T14:32:26.413Z,29.40
2022-09-12T14:35:20.704Z,29.33
2022-09-12T14:37:51.020Z,29.37
2022-09-12T14:40:22.510Z,29.15
2022-09-12T14:42:52.645Z,29.14
2022-09-12T14:45:26.650Z,28.83
2022-09-12T14:47:57.047Z,28.89
2022-09-12T14:50:27.776Z,28.66
2022-09-12T14:53:06.970Z,28.63
2022-09-12T14:55:45.257Z,28.16
2022-09-12T14:58:17.839Z,28.36
2022-09-12T15:00:57.820Z,28.66
2022-09-12T15:03:31.255Z,28.76
2022-09-12T15:06:00.378Z,28.22
2022-09-12T15:08:28.552Z,28.10
2022-09-12T15:10:56.775Z,27.77
2022-09-12T15:13:30.244Z,27.95
2022-09-12T15:15:59.953Z,27.87
2022-09-12T15:18:30.426Z,27.77
2022-09-12T15:21:03.343Z,27.81
2022-09-12T15:23:43.659Z,27.44
2022-09-12T15:26:13.583Z,27.40
2022-09-12T15:28:44.576Z,27.13
2022-09-12T15:31:18.413Z,27.07
2022-09-12T15:33:48.271Z,26.96
2022-09-12T15:36:18.767Z,27.02
2022-09-12T15:38:47.749Z,26.60
2022-09-12T15:41:18.503Z,26.66
2022-09-12T15:43:47.859Z,26.77
2022-09-12T15:46:17.541Z,26.74
2022-09-12T15:48:47.327Z,26.68
2022-09-12T15:51:16.663Z,26.56
2022-09-12T15:53:45.371Z,26.58
2022-09-12T15:56:13.857Z,26.46
2022-09-12T15:58:57.224Z,26.32
2022-09-12T16:01:27.099Z,26.35
2022-09-12T16:03:56.597Z,26.23
2022-09-12T16:06:24.954Z,26.11
2022-09-12T16:08:52.861Z,26.00
2022-09-12T16:11:23.053Z,26.07
2022-09-12T16:13:53.085Z,26.03
2022-09-12T16:16:21.186Z,25.98
2022-09-12T16:18:49.381Z,25.85
2022-09-12T16:21:18.825Z,25.67
2022-09-12T16:23:48.151Z,25.56
2022-09-12T16:26:16.941Z,25.59
2022-09-12T16:28:45.270Z,25.53
2022-09-12T16:31:15.160Z,25.41
2022-09-12T16:33:43.469Z,25.32
2022-09-12T16:36:13.378Z,25.29
2022-09-12T16:38:47.334Z,25.35
2022-09-12T16:41:17.259Z,25.22
2022-09-12T16:43:45.838Z,25.19
2022-09-12T16:46:19.076Z,25.02
2022-09-12T16:48:52.441Z,25.05
2022-09-12T16:51:22.498Z,25.05
2022-09-12T16:53:52.050Z,24.88
2022-09-12T16:56:20.475Z,24.75
2022-09-12T16:58:49.021Z,24.66
2022-09-12T17:01:19.444Z,24.56
2022-09-12T17:03:47.623Z,24.38
2022-09-12T17:06:18.121Z,24.26
2022-09-12T17:08:48.258Z,24.17
2022-09-12T17:11:19.790Z,23.99
2022-09-12T17:14:06.406Z,23.90
2022-09-12T17:16:35.985Z,23.87
2022-09-12T17:19:04.419Z,23.85
2022-09-12T17:21:33.017Z,23.73
2022-09-12T17:24:00.931Z,23.71
2022-09-12T17:26:30.370Z,23.63
2022-09-12T17:28:58.373Z,23.50
2022-09-12T17:31:26.666Z,23.36
2022-09-12T17:33:58.123Z,23.28
2022-09-12T17:36:27.016Z,23.12
2022-09-12T17:38:55.305Z,23.03
2022-09-12T17:41:25.003Z,22.99
2022-09-12T17:43:56.630Z,22.92
2022-09-12T17:46:26.351Z,22.84
2022-09-12T17:48:56.427Z,22.69
2022-09-12T17:51:26.046Z,22.64
2022-09-12T17:54:01.217Z,22.58
2022-09-12T17:56:31.374Z,22.56
2022-09-12T17:59:01.135Z,22.42
2022-09-12T18:02:04.266Z,22.33
2022-09-12T18:04:32.665Z,22.23
2022-09-12T18:07:00.825Z,22.20
2022-09-12T18:09:30.633Z,22.26
2022-09-12T18:11:58.746Z,22.18
2022-09-12T18:14:30.407Z,22.08
2022-09-12T18:17:00.209Z,22.01
2022-09-12T18:19:28.689Z,22.01
2022-09-12T18:21:57.201Z,21.94
2022-09-12T18:24:25.901Z,21.82
2022-09-12T18:26:56.580Z,21.81
2022-09-12T18:29:24.928Z,21.68
2022-09-12T18:31:54.525Z,21.67
2022-09-12T18:34:22.666Z,21.58
2022-09-12T18:36:54.276Z,21.49
2022-09-12T18:39:26.843Z,21.44
2022-09-12T18:41:56.225Z,21.38
2022-09-12T18:44:24.293Z,21.30
2022-09-12T18:46:52.359Z,21.24
2022-09-12T18:49:21.786Z,21.26
2022-09-12T18:51:49.845Z,21.15
2022-09-12T18:54:18.684Z,21.13
2022-09-12T18:56:46.647Z,21.13
2022-09-12T18:59:15.230Z,21.03
2022-09-12T19:01:46.284Z,20.98
2022-09-12T19:04:16.339Z,20.90
2022-09-12T19:06:48.124Z,20.87
2022-09-12T19:09:18.582Z,20.70
2022-09-12T19:11:49.922Z,20.59
2022-09-12T19:14:19.295Z,20.61
2022-09-12T19:16:47.380Z,20.67
2022-09-12T19:19:15.579Z,20.50
2022-09-12T19:21:45.164Z,20.37
2022-09-12T19:24:14.412Z,20.29
2022-09-12T19:26:42.915Z,20.29
2022-09-12T19:29:14.427Z,20.21
2022-09-12T19:31:42.806Z,20.19
2022-09-12T19:34:12.493Z,20.11
2022-09-12T19:36:45.509Z,20.08
2022-09-12T19:39:16.962Z,20.06
2022-09-12T19:41:45.904Z,20.02
2022-09-12T19:44:13.947Z,19.95
2022-09-12T19:46:42.086Z,19.87
2022-09-12T19:49:12.080Z,19.81
2022-09-12T19:51:40.213Z,19.75
2022-09-12T19:54:11.399Z,19.66
2022-09-12T19:56:40.857Z,19.69
2022-09-12T19:59:09.710Z,19.62
2022-09-12T20:01:38.022Z,19.50
2022-09-12T20:04:06.942Z,19.51
2022-09-12T20:06:35.092Z,19.54
2022-09-12T20:09:03.233Z,19.54
2022-09-12T20:11:31.580Z,19.48
2022-09-12T20:14:01.084Z,19.50
2022-09-12T20:16:30.097Z,19.44
2022-09-12T20:19:00.105Z,19.42
2022-09-12T20:21:33.009Z,19.43
2022-09-12T20:24:03.190Z,19.39
2022-09-12T20:26:31.334Z,19.34
2022-09-12T20:29:00.800Z,19.30
2022-09-12T20:31:28.880Z,19.22
2022-09-12T20:33:57.235Z,19.30
2022-09-12T20:36:25.250Z,19.29
2022-09-12T20:38:56.842Z,19.27
2022-09-12T20:41:26.062Z,19.24
2022-09-12T20:43:55.800Z,19.18
2022-09-12T20:46:26.915Z,19.20
2022-09-12T20:48:55.088Z,19.13
2022-09-12T20:51:24.616Z,19.11
2022-09-12T20:53:55.063Z,19.19
2022-09-12T20:56:23.634Z,19.09
2022-09-12T20:58:54.774Z,19.12
2022-09-12T21:01:27.316Z,19.14
2022-09-12T21:03:55.455Z,19.03
2022-09-12T21:06:24.328Z,19.02
2022-09-12T21:08:52.660Z,18.96
2022-09-12T21:11:21.417Z,18.91
2022-09-12T21:13:50.059Z,18.85
2022-09-12T21:16:20.281Z,18.82
2022-09-12T21:18:54.849Z,18.75
2022-09-12T21:21:23.250Z,18.72
2022-09-12T21:23:51.733Z,18.74
2022-09-12T21:26:19.829Z,18.81
2022-09-12T21:28:47.755Z,18.71
2022-09-12T21:31:15.810Z,18.69
2022-09-12T21:33:43.966Z,18.62
2022-09-12T21:36:13.461Z,18.54
2022-09-12T21:38:41.564Z,18.44
2022-09-12T21:41:16.832Z,18.41
2022-09-12T21:43:45.673Z,18.44
2022-09-12T21:46:14.014Z,18.41
2022-09-12T21:48:43.676Z,18.32
2022-09-12T21:51:13.049Z,18.39
2022-09-12T21:53:41.131Z,18.45
2022-09-12T21:56:09.986Z,18.34
2022-09-12T21:58:39.286Z,18.41
2022-09-12T22:01:09.446Z,18.37
2022-09-12T22:03:37.594Z,18.40
2022-09-12T22:06:08.714Z,18.35
2022-09-12T22:08:39.887Z,18.41
2022-09-12T22:11:10.845Z,18.38
2022-09-12T22:13:42.356Z,18.34
2022-09-12T22:16:11.278Z,18.39
2022-09-12T22:18:39.538Z,18.36
2022-09-12T22:21:09.842Z,18.33
2022-09-12T22:23:56.961Z,18.31
2022-09-12T22:26:25.483Z,18.29
2022-09-12T22:28:54.428Z,18.32
2022-09-12T22:31:23.288Z,18.32
2022-09-12T22:33:51.792Z,18.27
2022-09-12T22:36:19.817Z,18.30
2022-09-12T22:38:49.328Z,18.33
2022-09-12T22:41:17.296Z,18.42
2022-09-12T22:43:45.309Z,18.35
2022-09-12T22:46:13.841Z,18.39
2022-09-12T22:48:42.834Z,18.36
2022-09-12T22:51:12.485Z,18.40
2022-09-12T22:53:40.803Z,18.34
2022-09-12T22:56:10.580Z,18.37
2022-09-12T22:58:39.022Z,18.36
2022-09-12T23:01:08.075Z,18.47
2022-09-12T23:03:40.183Z,18.39
2022-09-12T23:06:09.990Z,18.40
2022-09-12T23:08:39.475Z,18.40
2022-09-12T23:11:10.167Z,18.39
2022-09-12T23:13:40.339Z,18.48
2022-09-12T23:16:09.171Z,18.45
2022-09-12T23:18:40.156Z,18.46
2022-09-12T23:21:11.240Z,18.46
2022-09-12T23:23:39.992Z,18.41
2022-09-12T23:26:11.058Z,18.44
2022-09-12T23:28:41.447Z,18.34
2022-09-12T23:31:10.284Z,18.32
2022-09-12T23:33:38.439Z,18.36
2022-09-12T23:36:12.679Z,18.39
2022-09-12T23:38:44.471Z,18.34
2022-09-12T23:41:14.425Z,18.35
2022-09-12T23:43:45.359Z,18.28
2022-09-12T23:46:17.383Z,18.24
2022-09-12T23:48:46.071Z,18.27
2022-09-12T23:51:14.113Z,18.29
2022-09-12T23:53:42.441Z,18.29
2022-09-12T23:56:10.670Z,18.23
2022-09-12T23:58:38.637Z,18.21
